sensor_id;sensor_type;location;lat;lon;timestamp;pressure;altitude;pressure_sealevel;temperature;humidity
82931;BME280;72705;53.346;10.248;2024-03-08T00:02:03;102429.84;;;-0.28;100.00
82931;BME280;72705;53.346;10.248;2024-03-08T00:04:29;102428.53;;;-0.41;100.00
82931;BME280;72705;53.346;10.248;2024-03-08T00:06:55;102427.31;;;-0.57;100.00
82931;BME280;72705;53.346;10.248;2024-03-08T00:09:20;102445.81;;;-0.56;100.00
82931;BME280;72705;53.346;10.248;2024-03-08T00:11:46;102441.34;;;-0.55;100.00
82931;BME280;72705;53.346;10.248;2024-03-08T00:14:12;102432.50;;;-0.54;100.00
82931;BME280;72705;53.346;10.248;2024-03-08T00:16:38;102444.81;;;-0.53;100.00
82931;BME280;72705;53.346;10.248;2024-03-08T00:19:05;102419.88;;;-0.74;100.00
82931;BME280;72705;53.346;10.248;2024-03-08T00:21:32;102420.91;;;-0.78;100.00
82931;BME280;72705;53.346;10.248;2024-03-08T00:23:57;102403.00;;;-0.98;100.00
82931;BME280;72705;53.346;10.248;2024-03-08T00:26:24;102436.97;;;-0.83;100.00
82931;BME280;72705;53.346;10.248;2024-03-08T00:28:49;102374.47;;;-1.16;100.00
82931;BME280;72705;53.346;10.248;2024-03-08T00:31:15;102376.44;;;-1.23;100.00
82931;BME280;72705;53.346;10.248;2024-03-08T00:33:43;102407.78;;;-1.09;100.00
82931;BME280;72705;53.346;10.248;2024-03-08T00:36:08;102425.22;;;-1.02;100.00
82931;BME280;72705;53.346;10.248;2024-03-08T00:38:33;102381.69;;;-1.21;100.00
82931;BME280;72705;53.346;10.248;2024-03-08T00:40:59;102428.56;;;-0.97;100.00
82931;BME280;72705;53.346;10.248;2024-03-08T00:43:25;102369.03;;;-1.39;100.00
82931;BME280;72705;53.346;10.248;2024-03-08T00:45:51;102430.75;;;-1.11;100.00
82931;BME280;72705;53.346;10.248;2024-03-08T00:48:16;102433.22;;;-1.05;100.00
82931;BME280;72705;53.346;10.248;2024-03-08T00:50:41;102390.19;;;-1.39;100.00
82931;BME280;72705;53.346;10.248;2024-03-08T00:53:07;102409.34;;;-1.31;100.00
82931;BME280;72705;53.346;10.248;2024-03-08T00:55:32;102428.34;;;-0.89;100.00
82931;BME280;72705;53.346;10.248;2024-03-08T00:57:58;102398.97;;;-0.82;100.00
82931;BME280;72705;53.346;10.248;2024-03-08T01:00:24;102419.53;;;-0.62;100.00
82931;BME280;72705;53.346;10.248;2024-03-08T01:02:49;102408.25;;;-0.68;100.00
82931;BME280;72705;53.346;10.248;2024-03-08T01:05:14;102403.00;;;-0.70;100.00
82931;BME280;72705;53.346;10.248;2024-03-08T01:07:40;102413.03;;;-0.53;100.00
82931;BME280;72705;53.346;10.248;2024-03-08T01:10:07;102410.75;;;-0.64;100.00
82931;BME280;72705;53.346;10.248;2024-03-08T01:12:34;102408.53;;;-0.77;100.00
82931;BME280;72705;53.346;10.248;2024-03-08T01:15:00;102386.53;;;-0.79;100.00
82931;BME280;72705;53.346;10.248;2024-03-08T01:17:25;102387.56;;;-0.84;100.00
82931;BME280;72705;53.346;10.248;2024-03-08T01:19:52;102397.63;;;-0.95;100.00
82931;BME280;72705;53.346;10.248;2024-03-08T01:22:18;102394.34;;;-1.03;100.00
82931;BME280;72705;53.346;10.248;2024-03-08T01:24:43;102361.75;;;-1.33;100.00
82931;BME280;72705;53.346;10.248;2024-03-08T01:27:09;102386.41;;;-1.03;100.00
82931;BME280;72705;53.346;10.248;2024-03-08T01:29:34;102383.31;;;-0.89;100.00
82931;BME280;72705;53.346;10.248;2024-03-08T01:32:00;102377.13;;;-0.88;100.00
82931;BME280;72705;53.346;10.248;2024-03-08T01:34:28;102378.78;;;-0.86;100.00
82931;BME280;72705;53.346;10.248;2024-03-08T01:36:55;102273.63;;;-1.35;100.00
82931;BME280;72705;53.346;10.248;2024-03-08T01:39:23;102320.94;;;-0.98;100.00
82931;BME280;72705;53.346;10.248;2024-03-08T01:41:50;102343.50;;;-0.86;100.00
82931;BME280;72705;53.346;10.248;2024-03-08T01:44:15;102327.88;;;-0.94;100.00
82931;BME280;72705;53.346;10.248;2024-03-08T01:46:44;102361.69;;;-0.75;100.00
82931;BME280;72705;53.346;10.248;2024-03-08T01:49:11;102346.13;;;-0.86;100.00
82931;BME280;72705;53.346;10.248;2024-03-08T01:51:38;102349.72;;;-0.87;100.00
82931;BME280;72705;53.346;10.248;2024-03-08T01:54:06;102337.81;;;-1.00;100.00
82931;BME280;72705;53.346;10.248;2024-03-08T01:56:32;102329.41;;;-1.13;100.00
82931;BME280;72705;53.346;10.248;2024-03-08T01:58:59;102317.97;;;-1.15;100.00
82931;BME280;72705;53.346;10.248;2024-03-08T02:01:25;102303.31;;;-1.25;100.00
82931;BME280;72705;53.346;10.248;2024-03-08T02:03:50;102325.53;;;-1.03;100.00
82931;BME280;72705;53.346;10.248;2024-03-08T02:06:16;102271.13;;;-1.39;100.00
82931;BME280;72705;53.346;10.248;2024-03-08T02:08:43;102281.91;;;-1.45;100.00
82931;BME280;72705;53.346;10.248;2024-03-08T02:11:11;102305.25;;;-1.30;100.00
82931;BME280;72705;53.346;10.248;2024-03-08T02:13:37;102279.50;;;-1.53;100.00
82931;BME280;72705;53.346;10.248;2024-03-08T02:16:03;102311.47;;;-1.31;100.00
82931;BME280;72705;53.346;10.248;2024-03-08T02:18:30;102266.44;;;-1.57;100.00
82931;BME280;72705;53.346;10.248;2024-03-08T02:20:57;102314.19;;;-1.34;100.00
82931;BME280;72705;53.346;10.248;2024-03-08T02:23:23;102287.22;;;-1.45;100.00
82931;BME280;72705;53.346;10.248;2024-03-08T02:25:51;102286.53;;;-1.52;100.00
82931;BME280;72705;53.346;10.248;2024-03-08T02:28:18;102297.03;;;-1.49;100.00
82931;BME280;72705;53.346;10.248;2024-03-08T02:30:44;102324.38;;;-1.22;100.00
82931;BME280;72705;53.346;10.248;2024-03-08T02:33:13;102337.56;;;-1.20;100.00
82931;BME280;72705;53.346;10.248;2024-03-08T02:35:42;102298.34;;;-1.36;100.00
82931;BME280;72705;53.346;10.248;2024-03-08T02:38:11;102325.22;;;-1.20;100.00
82931;BME280;72705;53.346;10.248;2024-03-08T02:40:37;102328.88;;;-1.24;100.00
82931;BME280;72705;53.346;10.248;2024-03-08T02:43:02;102288.06;;;-1.45;100.00
82931;BME280;72705;53.346;10.248;2024-03-08T02:45:30;102318.56;;;-1.33;100.00
82931;BME280;72705;53.346;10.248;2024-03-08T02:47:55;102328.88;;;-1.24;100.00
82931;BME280;72705;53.346;10.248;2024-03-08T02:50:21;102320.09;;;-1.26;100.00
82931;BME280;72705;53.346;10.248;2024-03-08T02:52:48;102316.75;;;-1.31;100.00
82931;BME280;72705;53.346;10.248;2024-03-08T02:55:14;102307.41;;;-1.43;100.00
82931;BME280;72705;53.346;10.248;2024-03-08T02:57:43;102310.97;;;-1.44;100.00
82931;BME280;72705;53.346;10.248;2024-03-08T03:00:10;102301.94;;;-1.37;100.00
82931;BME280;72705;53.346;10.248;2024-03-08T03:02:37;102301.25;;;-1.43;100.00
82931;BME280;72705;53.346;10.248;2024-03-08T03:05:03;102308.28;;;-1.42;100.00
82931;BME280;72705;53.346;10.248;2024-03-08T03:07:34;102296.09;;;-1.48;100.00
82931;BME280;72705;53.346;10.248;2024-03-08T03:10:00;102304.81;;;-1.44;100.00
82931;BME280;72705;53.346;10.248;2024-03-08T03:12:29;102294.69;;;-1.59;100.00
82931;BME280;72705;53.346;10.248;2024-03-08T03:14:55;102304.03;;;-1.48;100.00
82931;BME280;72705;53.346;10.248;2024-03-08T03:17:24;102296.25;;;-1.52;100.00
82931;BME280;72705;53.346;10.248;2024-03-08T03:19:51;102288.31;;;-1.52;100.00
82931;BME280;72705;53.346;10.248;2024-03-08T03:22:17;102294.28;;;-1.46;100.00
82931;BME280;72705;53.346;10.248;2024-03-08T03:24:44;102296.25;;;-1.52;100.00
82931;BME280;72705;53.346;10.248;2024-03-08T03:27:09;102298.09;;;-1.54;100.00
82931;BME280;72705;53.346;10.248;2024-03-08T03:29:41;102293.75;;;-1.57;100.00
82931;BME280;72705;53.346;10.248;2024-03-08T03:32:15;102293.59;;;-1.52;100.00
82931;BME280;72705;53.346;10.248;2024-03-08T03:34:40;102294.56;;;-1.55;100.00
82931;BME280;72705;53.346;10.248;2024-03-08T03:37:06;102296.25;;;-1.52;100.00
82931;BME280;72705;53.346;10.248;2024-03-08T03:39:33;102291.63;;;-1.46;100.00
82931;BME280;72705;53.346;10.248;2024-03-08T03:42:00;102295.06;;;-1.42;100.00
82931;BME280;72705;53.346;10.248;2024-03-08T03:44:28;102288.94;;;-1.44;100.00
82931;BME280;72705;53.346;10.248;2024-03-08T03:46:54;102284.53;;;-1.44;100.00
82931;BME280;72705;53.346;10.248;2024-03-08T03:49:19;102292.50;;;-1.45;100.00
82931;BME280;72705;53.346;10.248;2024-03-08T03:51:45;102289.22;;;-1.53;100.00
82931;BME280;72705;53.346;10.248;2024-03-08T03:54:10;102297.16;;;-1.53;100.00
82931;BME280;72705;53.346;10.248;2024-03-08T03:56:36;102291.13;;;-1.58;100.00
82931;BME280;72705;53.346;10.248;2024-03-08T03:59:01;102294.63;;;-1.56;100.00
82931;BME280;72705;53.346;10.248;2024-03-08T04:01:28;102292.50;;;-1.73;100.00
82931;BME280;72705;53.346;10.248;2024-03-08T04:03:54;102293.50;;;-1.79;100.00
82931;BME280;72705;53.346;10.248;2024-03-08T04:06:20;102261.47;;;-1.97;100.00
82931;BME280;72705;53.346;10.248;2024-03-08T04:08:45;102265.06;;;-1.98;100.00
82931;BME280;72705;53.346;10.248;2024-03-08T04:11:11;102292.88;;;-1.85;100.00
82931;BME280;72705;53.346;10.248;2024-03-08T04:13:36;102285.78;;;-1.85;100.00
82931;BME280;72705;53.346;10.248;2024-03-08T04:16:02;102286.34;;;-1.74;100.00
82931;BME280;72705;53.346;10.248;2024-03-08T04:18:28;102281.16;;;-1.78;100.00
82931;BME280;72705;53.346;10.248;2024-03-08T04:20:54;102280.38;;;-1.80;100.00
82931;BME280;72705;53.346;10.248;2024-03-08T04:23:20;102287.41;;;-1.79;100.00
82931;BME280;72705;53.346;10.248;2024-03-08T04:25:45;102282.41;;;-1.90;100.00
82931;BME280;72705;53.346;10.248;2024-03-08T04:28:11;102285.16;;;-1.93;100.00
82931;BME280;72705;53.346;10.248;2024-03-08T04:30:37;102283.38;;;-1.92;100.00
82931;BME280;72705;53.346;10.248;2024-03-08T04:33:04;102278.78;;;-1.86;100.00
82931;BME280;72705;53.346;10.248;2024-03-08T04:35:31;102279.50;;;-1.81;100.00
82931;BME280;72705;53.346;10.248;2024-03-08T04:37:57;102279.50;;;-1.81;100.00
82931;BME280;72705;53.346;10.248;2024-03-08T04:40:23;102274.69;;;-1.97;100.00
82931;BME280;72705;53.346;10.248;2024-03-08T04:42:49;102268.38;;;-1.92;100.00
82931;BME280;72705;53.346;10.248;2024-03-08T04:45:16;102265.63;;;-1.89;100.00
82931;BME280;72705;53.346;10.248;2024-03-08T04:47:42;102272.47;;;-1.82;100.00
82931;BME280;72705;53.346;10.248;2024-03-08T04:50:08;102273.53;;;-1.87;100.00
82931;BME280;72705;53.346;10.248;2024-03-08T04:52:34;102258.75;;;-1.94;100.00
82931;BME280;72705;53.346;10.248;2024-03-08T04:55:00;102239.56;;;-2.01;100.00
82931;BME280;72705;53.346;10.248;2024-03-08T04:57:27;102255.25;;;-1.95;100.00
82931;BME280;72705;53.346;10.248;2024-03-08T04:59:52;102242.22;;;-2.01;100.00
82931;BME280;72705;53.346;10.248;2024-03-08T05:02:18;102246.50;;;-1.97;100.00
82931;BME280;72705;53.346;10.248;2024-03-08T05:04:43;102250.84;;;-1.94;100.00
82931;BME280;72705;53.346;10.248;2024-03-08T05:07:08;102250.91;;;-1.97;100.00
82931;BME280;72705;53.346;10.248;2024-03-08T05:09:34;102251.00;;;-2.00;100.00
82931;BME280;72705;53.346;10.248;2024-03-08T05:12:02;102243.94;;;-2.00;100.00
82931;BME280;72705;53.346;10.248;2024-03-08T05:14:28;102246.63;;;-2.01;100.00
82931;BME280;72705;53.346;10.248;2024-03-08T05:16:54;102243.03;;;-1.99;100.00
82931;BME280;72705;53.346;10.248;2024-03-08T05:19:20;102249.19;;;-1.98;100.00
82931;BME280;72705;53.346;10.248;2024-03-08T05:21:49;102252.81;;;-2.03;100.00
82931;BME280;72705;53.346;10.248;2024-03-08T05:24:16;102246.81;;;-2.08;100.00
82931;BME280;72705;53.346;10.248;2024-03-08T05:26:44;102256.63;;;-2.11;100.00
82931;BME280;72705;53.346;10.248;2024-03-08T05:29:10;102247.22;;;-2.21;100.00
82931;BME280;72705;53.346;10.248;2024-03-08T05:31:43;102257.06;;;-2.26;100.00
82931;BME280;72705;53.346;10.248;2024-03-08T05:34:11;102239.34;;;-2.23;100.00
82931;BME280;72705;53.346;10.248;2024-03-08T05:36:36;102241.84;;;-2.18;100.00
82931;BME280;72705;53.346;10.248;2024-03-08T05:39:01;102236.47;;;-2.15;100.00
82931;BME280;72705;53.346;10.248;2024-03-08T05:41:27;102232.84;;;-2.11;100.00
82931;BME280;72705;53.346;10.248;2024-03-08T05:43:52;102238.75;;;-2.03;100.00
82931;BME280;72705;53.346;10.248;2024-03-08T05:46:18;102242.38;;;-2.06;100.00
82931;BME280;72705;53.346;10.248;2024-03-08T05:48:45;102242.94;;;-1.96;100.00
82931;BME280;72705;53.346;10.248;2024-03-08T05:51:12;102235.22;;;-2.04;100.00
82931;BME280;72705;53.346;10.248;2024-03-08T05:53:37;102246.41;;;-1.94;100.00
82931;BME280;72705;53.346;10.248;2024-03-08T05:56:03;102243.13;;;-2.02;100.00
82931;BME280;72705;53.346;10.248;2024-03-08T05:58:28;102248.22;;;-1.96;100.00
82931;BME280;72705;53.346;10.248;2024-03-08T06:00:56;102257.81;;;-1.92;100.00
82931;BME280;72705;53.346;10.248;2024-03-08T06:03:22;102240.19;;;-1.91;100.00
82931;BME280;72705;53.346;10.248;2024-03-08T06:05:48;102249.03;;;-1.92;100.00
82931;BME280;72705;53.346;10.248;2024-03-08T06:08:14;102251.50;;;-1.88;100.00
82931;BME280;72705;53.346;10.248;2024-03-08T06:10:40;102240.94;;;-1.88;100.00
82931;BME280;72705;53.346;10.248;2024-03-08T06:13:05;102242.88;;;-1.65;100.00
82931;BME280;72705;53.346;10.248;2024-03-08T06:15:31;102244.72;;;-1.67;100.00
82931;BME280;72705;53.346;10.248;2024-03-08T06:17:57;102243.88;;;-1.69;100.00
82931;BME280;72705;53.346;10.248;2024-03-08T06:20:22;102243.09;;;-1.73;100.00
82931;BME280;72705;53.346;10.248;2024-03-08T06:22:53;102245.53;;;-1.67;100.00
82931;BME280;72705;53.346;10.248;2024-03-08T06:25:18;102251.44;;;-1.57;100.00
82931;BME280;72705;53.346;10.248;2024-03-08T06:27:44;102242.66;;;-1.59;100.00
82931;BME280;72705;53.346;10.248;2024-03-08T06:30:11;102251.03;;;-1.45;100.00
82931;BME280;72705;53.346;10.248;2024-03-08T06:32:37;102240.88;;;-1.31;100.00
82931;BME280;72705;53.346;10.248;2024-03-08T06:35:04;102243.16;;;-1.20;100.00
82931;BME280;72705;53.346;10.248;2024-03-08T06:37:33;102239.69;;;-0.96;100.00
82931;BME280;72705;53.346;10.248;2024-03-08T06:39:59;102232.19;;;-0.58;100.00
82931;BME280;72705;53.346;10.248;2024-03-08T06:42:26;102240.00;;;-0.30;100.00
82931;BME280;72705;53.346;10.248;2024-03-08T06:44:51;102227.28;;;-0.21;100.00
82931;BME280;72705;53.346;10.248;2024-03-08T06:47:20;102231.75;;;-0.23;100.00
82931;BME280;72705;53.346;10.248;2024-03-08T06:49:46;102224.13;;;-0.55;100.00
82931;BME280;72705;53.346;10.248;2024-03-08T06:52:11;102237.22;;;-0.75;100.00
82931;BME280;72705;53.346;10.248;2024-03-08T06:54:37;102234.09;;;-0.87;100.00
82931;BME280;72705;53.346;10.248;2024-03-08T06:57:05;102234.19;;;-0.90;100.00
82931;BME280;72705;53.346;10.248;2024-03-08T06:59:31;102226.16;;;-0.87;100.00
82931;BME280;72705;53.346;10.248;2024-03-08T07:01:57;102233.06;;;-0.83;100.00
82931;BME280;72705;53.346;10.248;2024-03-08T07:04:25;102231.06;;;-0.76;100.00
82931;BME280;72705;53.346;10.248;2024-03-08T07:06:54;102237.94;;;-0.70;100.00
82931;BME280;72705;53.346;10.248;2024-03-08T07:09:19;102230.72;;;-0.67;100.00
82931;BME280;72705;53.346;10.248;2024-03-08T07:11:45;102232.19;;;-0.58;100.00
82931;BME280;72705;53.346;10.248;2024-03-08T07:14:12;102232.88;;;-0.53;100.00
82931;BME280;72705;53.346;10.248;2024-03-08T07:16:40;102232.78;;;-0.50;100.00
82931;BME280;72705;53.346;10.248;2024-03-08T07:19:06;102240.75;;;-0.50;100.00
82931;BME280;72705;53.346;10.248;2024-03-08T07:21:32;102221.63;;;-0.35;100.00
82931;BME280;72705;53.346;10.248;2024-03-08T07:23:57;102217.94;;;-0.31;100.00
82931;BME280;72705;53.346;10.248;2024-03-08T07:26:25;102221.16;;;-0.23;100.00
82931;BME280;72705;53.346;10.248;2024-03-08T07:28:52;102234.41;;;-0.23;100.00
82931;BME280;72705;53.346;10.248;2024-03-08T07:31:19;102225.06;;;-0.10;100.00
82931;BME280;72705;53.346;10.248;2024-03-08T07:33:54;102224.16;;;-0.09;100.00
82931;BME280;72705;53.346;10.248;2024-03-08T07:36:22;102230.97;;;-0.02;100.00
82931;BME280;72705;53.346;10.248;2024-03-08T07:38:49;102223.69;;;0.04;100.00
82931;BME280;72705;53.346;10.248;2024-03-08T07:41:15;102225.06;;;0.14;100.00
82931;BME280;72705;53.346;10.248;2024-03-08T07:43:40;102233.88;;;0.14;100.00
82931;BME280;72705;53.346;10.248;2024-03-08T07:46:07;102226.44;;;0.24;100.00
82931;BME280;72705;53.346;10.248;2024-03-08T07:48:35;102209.66;;;0.23;100.00
82931;BME280;72705;53.346;10.248;2024-03-08T07:51:02;102229.63;;;0.32;100.00
82931;BME280;72705;53.346;10.248;2024-03-08T07:53:28;102230.16;;;0.42;100.00
82931;BME280;72705;53.346;10.248;2024-03-08T07:55:53;102227.44;;;0.43;100.00
82931;BME280;72705;53.346;10.248;2024-03-08T07:58:19;102226.63;;;0.41;100.00
82931;BME280;72705;53.346;10.248;2024-03-08T08:00:45;102222.81;;;0.48;100.00
82931;BME280;72705;53.346;10.248;2024-03-08T08:03:11;102214.41;;;0.59;100.00
82931;BME280;72705;53.346;10.248;2024-03-08T08:05:37;102211.19;;;0.72;100.00
82931;BME280;72705;53.346;10.248;2024-03-08T08:08:05;102220.16;;;0.90;100.00
82931;BME280;72705;53.346;10.248;2024-03-08T08:10:34;102221.16;;;0.88;100.00
82931;BME280;72705;53.346;10.248;2024-03-08T08:12:59;102217.38;;;0.93;100.00
82931;BME280;72705;53.346;10.248;2024-03-08T08:15:25;102220.56;;;1.01;100.00
82931;BME280;72705;53.346;10.248;2024-03-08T08:17:50;102217.84;;;1.03;100.00
82931;BME280;72705;53.346;10.248;2024-03-08T08:20:17;102229.19;;;1.06;100.00
82931;BME280;72705;53.346;10.248;2024-03-08T08:22:44;102216.00;;;1.05;100.00
82931;BME280;72705;53.346;10.248;2024-03-08T08:25:09;102220.53;;;1.23;100.00
82931;BME280;72705;53.346;10.248;2024-03-08T08:27:38;102222.38;;;1.41;100.00
82931;BME280;72705;53.346;10.248;2024-03-08T08:30:05;102220.50;;;1.43;100.00
82931;BME280;72705;53.346;10.248;2024-03-08T08:32:34;102221.81;;;1.53;100.00
82931;BME280;72705;53.346;10.248;2024-03-08T08:35:02;102219.00;;;1.56;100.00
82931;BME280;72705;53.346;10.248;2024-03-08T08:37:27;102213.91;;;1.52;100.00
82931;BME280;72705;53.346;10.248;2024-03-08T08:39:55;102203.22;;;1.53;100.00
82931;BME280;72705;53.346;10.248;2024-03-08T08:42:22;102197.81;;;1.55;100.00
82931;BME280;72705;53.346;10.248;2024-03-08T08:44:51;102198.41;;;1.61;100.00
82931;BME280;72705;53.346;10.248;2024-03-08T08:47:19;102203.97;;;1.76;100.00
82931;BME280;72705;53.346;10.248;2024-03-08T08:49:45;102195.28;;;1.91;100.00
82931;BME280;72705;53.346;10.248;2024-03-08T08:52:12;102195.63;;;2.02;100.00
82931;BME280;72705;53.346;10.248;2024-03-08T08:54:37;102196.13;;;2.10;100.00
82931;BME280;72705;53.346;10.248;2024-03-08T08:57:03;102199.88;;;2.06;100.00
82931;BME280;72705;53.346;10.248;2024-03-08T08:59:36;102192.47;;;2.13;100.00
82931;BME280;72705;53.346;10.248;2024-03-08T09:02:02;102198.88;;;2.27;99.51
82931;BME280;72705;53.346;10.248;2024-03-08T09:04:30;102187.13;;;2.31;99.35
82931;BME280;72705;53.346;10.248;2024-03-08T09:06:56;102185.09;;;2.36;97.62
82931;BME280;72705;53.346;10.248;2024-03-08T09:09:22;102189.06;;;2.47;98.64
82931;BME280;72705;53.346;10.248;2024-03-08T09:11:52;102186.16;;;2.51;99.03
82931;BME280;72705;53.346;10.248;2024-03-08T09:14:20;102184.50;;;2.66;97.57
82931;BME280;72705;53.346;10.248;2024-03-08T09:16:46;102182.50;;;2.88;96.57
82931;BME280;72705;53.346;10.248;2024-03-08T09:19:13;102167.47;;;2.87;95.39
82931;BME280;72705;53.346;10.248;2024-03-08T09:21:38;102164.22;;;2.98;95.79
82931;BME280;72705;53.346;10.248;2024-03-08T09:24:05;102157.09;;;2.98;93.94
82931;BME280;72705;53.346;10.248;2024-03-08T09:26:31;102157.72;;;3.20;93.91
82931;BME280;72705;53.346;10.248;2024-03-08T09:28:59;102145.09;;;3.24;93.77
82931;BME280;72705;53.346;10.248;2024-03-08T09:31:24;102147.63;;;3.43;92.01
82931;BME280;72705;53.346;10.248;2024-03-08T09:33:51;102125.63;;;3.22;91.34
82931;BME280;72705;53.346;10.248;2024-03-08T09:36:16;102143.16;;;3.43;91.59
82931;BME280;72705;53.346;10.248;2024-03-08T09:38:43;102144.66;;;3.64;91.51
82931;BME280;72705;53.346;10.248;2024-03-08T09:41:09;102140.63;;;3.73;91.40
82931;BME280;72705;53.346;10.248;2024-03-08T09:43:35;102137.69;;;3.78;89.69
82931;BME280;72705;53.346;10.248;2024-03-08T09:46:04;102121.47;;;3.82;89.34
82931;BME280;72705;53.346;10.248;2024-03-08T09:48:31;102137.53;;;3.81;88.93
82931;BME280;72705;53.346;10.248;2024-03-08T09:50:57;102127.31;;;4.04;89.17
82931;BME280;72705;53.346;10.248;2024-03-08T09:53:24;102115.91;;;4.17;86.88
82931;BME280;72705;53.346;10.248;2024-03-08T09:55:49;102117.47;;;4.21;86.88
82931;BME280;72705;53.346;10.248;2024-03-08T09:58:16;102108.00;;;4.15;87.55
82931;BME280;72705;53.346;10.248;2024-03-08T10:00:47;102100.38;;;3.93;85.71
82931;BME280;72705;53.346;10.248;2024-03-08T10:03:12;102111.09;;;4.07;86.85
82931;BME280;72705;53.346;10.248;2024-03-08T10:05:43;102103.59;;;4.30;85.79
82931;BME280;72705;53.346;10.248;2024-03-08T10:08:12;102095.00;;;4.25;86.06
82931;BME280;72705;53.346;10.248;2024-03-08T10:10:38;102090.66;;;4.38;85.35
82931;BME280;72705;53.346;10.248;2024-03-08T10:13:08;102077.69;;;4.46;84.15
82931;BME280;72705;53.346;10.248;2024-03-08T10:15:34;102091.47;;;4.54;83.87
82931;BME280;72705;53.346;10.248;2024-03-08T10:18:00;102080.72;;;4.70;83.60
82931;BME280;72705;53.346;10.248;2024-03-08T10:20:28;102079.47;;;4.75;81.63
82931;BME280;72705;53.346;10.248;2024-03-08T10:23:04;102068.72;;;4.77;80.43
82931;BME280;72705;53.346;10.248;2024-03-08T10:25:33;102056.16;;;4.93;80.59
82931;BME280;72705;53.346;10.248;2024-03-08T10:28:05;102060.25;;;4.99;80.04
82931;BME280;72705;53.346;10.248;2024-03-08T10:30:32;102062.91;;;5.13;79.57
82931;BME280;72705;53.346;10.248;2024-03-08T10:32:58;102057.56;;;5.13;78.80
82931;BME280;72705;53.346;10.248;2024-03-08T10:35:24;102055.06;;;5.38;77.81
82931;BME280;72705;53.346;10.248;2024-03-08T10:37:52;102045.31;;;5.51;73.42
82931;BME280;72705;53.346;10.248;2024-03-08T10:40:29;102038.44;;;5.61;72.72
82931;BME280;72705;53.346;10.248;2024-03-08T10:43:01;102036.91;;;5.57;71.57
82931;BME280;72705;53.346;10.248;2024-03-08T10:48:06;102033.88;;;5.35;72.97
82931;BME280;72705;53.346;10.248;2024-03-08T10:50:35;102029.09;;;5.26;73.77
82931;BME280;72705;53.346;10.248;2024-03-08T10:53:01;102035.69;;;5.35;73.71
82931;BME280;72705;53.346;10.248;2024-03-08T10:55:28;102036.50;;;5.63;75.37
82931;BME280;72705;53.346;10.248;2024-03-08T10:57:55;102020.25;;;5.66;72.85
82931;BME280;72705;53.346;10.248;2024-03-08T11:00:21;102025.22;;;5.73;72.15
82931;BME280;72705;53.346;10.248;2024-03-08T11:02:52;102015.94;;;5.64;72.41
82931;BME280;72705;53.346;10.248;2024-03-08T11:05:40;102022.88;;;5.81;73.81
82931;BME280;72705;53.346;10.248;2024-03-08T11:08:26;102009.88;;;5.75;73.87
82931;BME280;72705;53.346;10.248;2024-03-08T11:10:54;102011.84;;;5.99;72.61
82931;BME280;72705;53.346;10.248;2024-03-08T11:15:59;101996.47;;;6.16;72.71
82931;BME280;72705;53.346;10.248;2024-03-08T11:18:33;101996.66;;;6.13;73.54
82931;BME280;72705;53.346;10.248;2024-03-08T11:21:04;101982.06;;;5.91;74.55
82931;BME280;72705;53.346;10.248;2024-03-08T11:23:33;101983.06;;;6.03;73.69
82931;BME280;72705;53.346;10.248;2024-03-08T11:26:00;101986.09;;;6.24;73.56
82931;BME280;72705;53.346;10.248;2024-03-08T11:28:26;101974.75;;;6.33;72.17
82931;BME280;72705;53.346;10.248;2024-03-08T11:33:30;101965.00;;;6.44;72.29
82931;BME280;72705;53.346;10.248;2024-03-08T11:38:42;101957.50;;;6.75;67.70
82931;BME280;72705;53.346;10.248;2024-03-08T11:41:20;101950.84;;;6.93;67.68
82931;BME280;72705;53.346;10.248;2024-03-08T11:43:46;101951.16;;;7.01;68.16
82931;BME280;72705;53.346;10.248;2024-03-08T11:46:13;101951.47;;;7.09;63.13
82931;BME280;72705;53.346;10.248;2024-03-08T11:48:43;101942.97;;;7.15;61.27
82931;BME280;72705;53.346;10.248;2024-03-08T11:51:13;101947.16;;;7.19;61.28
82931;BME280;72705;53.346;10.248;2024-03-08T11:53:39;101944.91;;;7.13;61.11
82931;BME280;72705;53.346;10.248;2024-03-08T11:56:07;101933.25;;;7.02;60.48
82931;BME280;72705;53.346;10.248;2024-03-08T11:58:35;101929.56;;;7.15;59.20
82931;BME280;72705;53.346;10.248;2024-03-08T12:01:09;101933.41;;;7.11;59.09
82931;BME280;72705;53.346;10.248;2024-03-08T12:03:38;101927.16;;;7.23;59.74
82931;BME280;72705;53.346;10.248;2024-03-08T12:06:04;101910.97;;;7.49;59.91
82931;BME280;72705;53.346;10.248;2024-03-08T12:08:32;101926.75;;;7.77;58.46
82931;BME280;72705;53.346;10.248;2024-03-08T12:10:58;101912.47;;;7.53;57.88
82931;BME280;72705;53.346;10.248;2024-03-08T12:13:30;101910.41;;;7.32;57.36
82931;BME280;72705;53.346;10.248;2024-03-08T12:16:03;101915.31;;;7.39;57.78
82931;BME280;72705;53.346;10.248;2024-03-08T12:18:33;101909.34;;;7.22;57.27
82931;BME280;72705;53.346;10.248;2024-03-08T12:21:09;101904.06;;;7.34;57.40
82931;BME280;72705;53.346;10.248;2024-03-08T12:23:39;101899.97;;;7.64;57.66
82931;BME280;72705;53.346;10.248;2024-03-08T12:26:18;101888.53;;;7.50;56.38
82931;BME280;72705;53.346;10.248;2024-03-08T12:28:48;101886.63;;;7.63;58.26
82931;BME280;72705;53.346;10.248;2024-03-08T12:31:15;101877.22;;;7.57;57.03
82931;BME280;72705;53.346;10.248;2024-03-08T12:33:50;101881.03;;;7.66;57.01
82931;BME280;72705;53.346;10.248;2024-03-08T12:36:19;101872.41;;;7.73;55.72
82931;BME280;72705;53.346;10.248;2024-03-08T12:38:49;101865.47;;;7.82;55.94
82931;BME280;72705;53.346;10.248;2024-03-08T12:41:17;101870.84;;;7.82;55.68
82931;BME280;72705;53.346;10.248;2024-03-08T12:43:45;101857.13;;;7.74;55.91
82931;BME280;72705;53.346;10.248;2024-03-08T12:46:14;101853.72;;;7.72;53.76
82931;BME280;72705;53.346;10.248;2024-03-08T12:48:40;101851.00;;;7.61;53.75